Pagrindinis puslapis
METAR-TAF:

METAR-TAF

Oro uostai :

Larnaka, Kipras

platuma: 34-53N, ilguma: 033-38E, Aukštis: 2 m

Dabartinis oras

Ataskaita buvo paskelbta 36 minutes, ne 09:00 UTC
Vėjas 5 kt iš Rytų
Temperatūra 26°C
Drėgmė 51%
Slėgis 1018 hPa
Matomumas 10 km arba daugiau
nėra debesų žemiau 1500 m ir nėra kamuolinių lietaus debesų

METAR: LCLK 270900Z 09005KT CAVOK 26/15 Q1018 NOSIG

Laikas: 12:36 (09:36 UTC)

Prognozė

Ataskaita buvo paskelbta 4 valandos ir 6 minutes, ne 05:30 UTC
Prognozė galioja nuo 27 metu 06 UTC su 28 metu 06 UTC
Vėjas 5 kt iš Vakarų/Šiaurės Vakarų
Matomumas 10 km arba daugiau
Mažai debesys ne aukštis 3000 ft
Tapsmas
nuo 27 metu 09 UTC su 27 metu 12 UTC
Vėjas 10 kt iš Pietų
Tikimybė 30% :
Laikinai
nuo 27 metu 10 UTC su 27 metu 16 UTC
Mažai debesys ne aukštis 3000 ft, Liūtiniai kamuoliniai debesys.
Tapsmas
nuo 27 metu 15 UTC su 27 metu 18 UTC
Vėjas 5 kt iš Vakarų/Šiaurės Vakarų

TAF: LCLK 270530Z 2706/2806 30005KT 9999 FEW030 BECMG 2709/2712 19010KT PROB30 TEMPO 2710/2716 FEW030CB BECMG 2715/2718 30005KT

Orai ataskaitas ir orų prognozės (METAR, TAF).

turimą stotys yra geltonos ir raudonos taškus žemėlapyje.

Perkelti pele per norėdami pamatyti stoties vardą.

Tada spustelėkite, norėdami matyti oro stebėjimo ir prognozės.

Norėdami pakeisti žemėlapį: spustelėkite ant žalios mygtukų su juodo kryžiaus žemyn,; žalią mygtuką su brūkšneliu, jei norite nutolinti; arba žalių rodyklių gretimoms žemėlapius.


METAR-TAF: